LFRM/LME METAR and TAF weather

Enter ICAO airport designator
Station Type Date Time Source
LFRM METAR 2018/12/17 03:00 UTC NOAA

LFRM 170300Z AUTO VRB02KT 5000 2400 BR NSC 04/03 Q1018 NOSIG


Station Type Date Time Source
LFRM Decoded METAR 2018/12/17 03:00 UTC NOAA

Le Mans, France (LFRM) 47-56N 000-12E 52M
Dec 16, 2018 - 10:00 PM EST / 2018.12.17 0300 UTC
Wind: Variable at 2 MPH (2 KT):0
Visibility: 3 mile(s):0
Weather: mist
Temperature: 39 F (4 C)
Dew Point: 37 F (3 C)
Relative Humidity: 93%
Pressure (altimeter): 30.06 in. Hg (1018 hPa)
ob: LFRM 170300Z AUTO VRB02KT 5000 2400 BR NSC 04/03 Q1018 NOSIG
cycle: 3

Station Type Date Time Source
LFRM TAF 2018/12/16 14:09 UTC NOAA

TAF TAF
AMD LFRM 161402Z 1614/1712 18006KT 9999 OVC003
BECMG 1614/1616 SCT015
TEMPO 1615/1621 VRB15G25KT 4000 SHRA BKN020CB PROB30
TEMPO 1617/1619 VRB20G35KT 2000 TSRA SCT008 BKN015CB
BECMG 1617/1619 21007KT
BECMG 1703/1706 3000 BR PROB30
TEMPO 1706/1709 0500 FG VV///


Example: see airport list